Time;durP1;ratioP1;P1;durP2;ratioP2;P2;SDS_P1;SDS_P2;PMS_P1;PMS_P2;Temp;Humidity;BMP_temperature;BMP_pressure;BME280_temperature;BME280_humidity;BME280_pressure;Samples;Min_cycle;Max_cycle;Signal;HPM_P1;HPM_P2
2022/09/15 00:00:50;;;;;;;13.35;9.70;;;15.30;88.70;;;;;;4941413;28;20115;-78
2022/09/15 00:03:17;;;;;;;15.13;9.80;;;15.30;88.70;;;;;;4957602;28;20187;-77
2022/09/15 00:05:44;;;;;;;18.92;9.90;;;15.30;88.70;;;;;;4942904;28;20062;-77
2022/09/15 00:08:11;;;;;;;17.00;9.88;;;15.30;88.70;;;;;;4941258;28;20036;-77
2022/09/15 00:10:46;;;;;;;17.02;9.65;;;15.30;88.70;;;;;;4947860;28;20031;-77
2022/09/15 00:13:12;;;;;;;14.48;10.10;;;15.30;88.70;;;;;;4946048;28;20514;-78
2022/09/15 00:15:38;;;;;;;14.07;8.75;;;15.30;88.70;;;;;;4946897;28;20043;-77
2022/09/15 00:18:06;;;;;;;12.40;8.77;;;15.30;88.70;;;;;;4945416;28;20407;-77
2022/09/15 00:20:32;;;;;;;13.82;8.68;;;15.30;88.70;;;;;;4943383;29;20035;-78
2022/09/15 00:22:58;;;;;;;13.85;8.65;;;15.30;88.70;;;;;;4946023;28;20245;-78
2022/09/15 00:25:24;;;;;;;12.27;8.30;;;15.30;88.70;;;;;;4944609;29;20046;-77
2022/09/15 00:27:50;;;;;;;16.92;7.53;;;15.30;88.70;;;;;;4943738;28;20035;-76
2022/09/15 00:30:16;;;;;;;9.98;7.70;;;15.30;88.80;;;;;;4945994;28;20036;-78
2022/09/15 00:32:42;;;;;;;11.43;8.18;;;15.30;88.80;;;;;;4943774;28;20090;-77
2022/09/15 00:35:08;;;;;;;13.95;8.77;;;15.30;88.80;;;;;;4942655;28;20035;-78
2022/09/15 00:37:34;;;;;;;12.32;7.97;;;15.30;88.70;;;;;;4946554;29;20380;-78
2022/09/15 00:40:00;;;;;;;13.45;7.88;;;15.30;88.80;;;;;;4943368;28;20541;-78
2022/09/15 00:42:26;;;;;;;9.48;7.82;;;15.30;88.70;;;;;;4942373;29;20047;-78
2022/09/15 00:44:57;;;;;;;11.57;8.40;;;15.30;88.80;;;;;;4944855;28;20044;-78
2022/09/15 00:47:38;;;;;;;9.63;7.28;;;15.30;88.80;;;;;;4944517;28;20071;-78
2022/09/15 00:50:09;;;;;;;10.38;7.60;;;15.30;88.80;;;;;;4944886;28;20094;-79
2022/09/15 00:52:52;;;;;;;13.25;7.57;;;15.30;89.30;;;;;;4945759;29;20392;-78
2022/09/15 00:55:24;;;;;;;9.52;7.25;;;15.30;88.80;;;;;;4959350;28;20052;-78
2022/09/15 00:57:54;;;;;;;11.30;7.10;;;15.30;88.70;;;;;;4941804;29;20645;-78
2022/09/15 01:00:23;;;;;;;7.90;6.82;;;15.30;88.80;;;;;;4946343;28;20066;-78
2022/09/15 01:02:50;;;;;;;11.30;6.65;;;15.30;88.90;;;;;;4944891;28;20435;-77
2022/09/15 01:05:19;;;;;;;8.95;7.13;;;15.30;88.90;;;;;;4944224;28;20130;-77
2022/09/15 01:07:53;;;;;;;11.48;7.70;;;15.30;88.80;;;;;;4944094;29;20059;-77
2022/09/15 01:10:27;;;;;;;10.17;7.03;;;15.30;88.80;;;;;;4942790;29;20039;-76
2022/09/15 01:13:01;;;;;;;9.68;6.93;;;15.30;88.90;;;;;;4943944;28;20821;-77
2022/09/15 01:15:44;;;;;;;12.48;7.60;;;15.30;88.90;;;;;;4943628;28;20061;-76
2022/09/15 01:18:24;;;;;;;9.85;6.93;;;15.30;89.00;;;;;;4944907;28;20039;-76
2022/09/15 01:20:57;;;;;;;9.70;6.97;;;15.30;88.90;;;;;;4940709;28;20070;-76
2022/09/15 01:23:57;;;;;;;8.27;6.03;;;15.30;89.00;;;;;;4943968;29;20396;-76
2022/09/15 01:26:41;;;;;;;9.10;6.82;;;15.30;89.00;;;;;;4944054;28;20432;-76
2022/09/15 01:29:44;;;;;;;7.40;6.18;;;15.30;89.00;;;;;;4940184;28;20043;-77
2022/09/15 01:35:19;;;;;;;8.73;6.15;;;15.30;89.00;;;;;;4942836;28;20466;-77
2022/09/15 01:38:24;;;;;;;8.73;6.28;;;15.30;89.00;;;;;;4944235;28;20043;-77
2022/09/15 01:41:03;;;;;;;7.00;6.25;;;15.30;89.10;;;;;;4943596;29;20047;-76
2022/09/15 01:43:33;;;;;;;9.00;6.07;;;15.30;89.00;;;;;;4947401;29;20028;-76
2022/09/15 01:46:01;;;;;;;6.38;5.78;;;15.30;89.00;;;;;;4942647;28;20067;-77
2022/09/15 01:48:30;;;;;;;9.52;6.57;;;15.30;89.00;;;;;;4943462;28;20427;-77
2022/09/15 01:51:00;;;;;;;9.15;5.90;;;15.30;89.20;;;;;;4942992;28;20032;-77
2022/09/15 01:53:27;;;;;;;8.30;6.35;;;15.30;89.10;;;;;;4943398;28;20046;-77
2022/09/15 01:56:10;;;;;;;7.63;5.95;;;15.30;89.10;;;;;;4945991;28;20051;-77
2022/09/15 01:58:39;;;;;;;7.43;5.55;;;15.30;89.80;;;;;;4945055;29;20035;-77
2022/09/15 02:01:13;;;;;;;7.30;5.97;;;15.30;89.00;;;;;;4945425;28;20051;-77
2022/09/15 02:03:43;;;;;;;6.38;5.78;;;15.30;89.10;;;;;;4942924;28;20043;-77
2022/09/15 02:06:23;;;;;;;6.22;5.53;;;15.30;89.10;;;;;;4942301;28;20526;-78
2022/09/15 02:08:56;;;;;;;10.02;6.18;;;15.30;89.20;;;;;;4944768;28;20106;-77
2022/09/15 02:11:26;;;;;;;7.57;5.47;;;15.30;89.20;;;;;;4943328;28;20042;-77
2022/09/15 02:13:59;;;;;;;7.60;5.68;;;15.30;89.10;;;;;;4941679;28;20066;-77
2022/09/15 02:16:31;;;;;;;6.18;5.45;;;15.30;89.20;;;;;;4944306;29;20035;-77
2022/09/15 02:19:30;;;;;;;7.40;5.60;;;15.30;89.10;;;;;;4942958;28;20043;-77
2022/09/15 02:22:28;;;;;;;6.20;5.22;;;15.30;89.10;;;;;;4943478;28;20128;-77
2022/09/15 02:25:01;;;;;;;9.98;5.97;;;15.30;89.20;;;;;;4931148;29;20035;-77
2022/09/15 02:27:33;;;;;;;5.97;5.13;;;15.30;89.10;;;;;;4942760;28;20090;-76
2022/09/15 02:30:05;;;;;;;8.00;5.60;;;15.30;89.00;;;;;;4943614;28;20048;-77
2022/09/15 02:32:33;;;;;;;6.15;5.55;;;15.30;89.00;;;;;;4940791;28;20133;-77
2022/09/15 02:35:05;;;;;;;6.55;5.38;;;15.30;89.10;;;;;;4941703;28;20050;-77
2022/09/15 02:37:34;;;;;;;6.40;5.68;;;15.30;89.10;;;;;;4943537;29;20031;-77
2022/09/15 02:40:01;;;;;;;7.03;5.60;;;15.30;89.10;;;;;;4941533;28;20418;-77
2022/09/15 02:42:31;;;;;;;7.40;5.55;;;15.30;89.10;;;;;;4943500;28;21435;-77
2022/09/15 02:44:58;;;;;;;6.25;5.65;;;15.30;89.10;;;;;;4941090;29;20039;-76
2022/09/15 02:47:24;;;;;;;6.28;5.68;;;15.30;89.20;;;;;;4942927;28;20043;-76
2022/09/15 02:49:50;;;;;;;6.47;5.45;;;15.30;89.20;;;;;;4942700;28;20487;-77
2022/09/15 02:52:16;;;;;;;7.32;5.80;;;15.30;89.20;;;;;;4942767;29;20039;-77
2022/09/15 02:54:42;;;;;;;7.30;6.07;;;15.30;89.30;;;;;;4943091;28;20038;-77
2022/09/15 02:57:08;;;;;;;7.40;6.47;;;15.30;89.30;;;;;;4940346;29;20138;-77
2022/09/15 03:02:19;;;;;;;7.03;5.97;;;15.30;89.30;;;;;;4944182;28;20464;-77
2022/09/15 03:04:46;;;;;;;6.60;5.90;;;15.30;89.30;;;;;;4944049;28;20070;-77
2022/09/15 03:07:12;;;;;;;7.40;6.25;;;15.30;89.40;;;;;;4944364;28;20074;-77
2022/09/15 03:09:38;;;;;;;8.55;6.53;;;15.30;89.40;;;;;;4942872;28;20039;-77
2022/09/15 03:12:04;;;;;;;8.23;6.40;;;15.30;89.40;;;;;;4942705;28;20043;-78
2022/09/15 03:14:31;;;;;;;7.65;6.50;;;15.30;89.30;;;;;;4941683;28;20043;-78
2022/09/15 03:16:58;;;;;;;7.97;6.28;;;15.30;89.40;;;;;;4940279;28;20034;-77
2022/09/15 03:19:24;;;;;;;6.60;5.70;;;15.30;89.40;;;;;;4942207;29;20462;-77
2022/09/15 03:21:50;;;;;;;8.63;6.20;;;15.20;89.40;;;;;;4939054;29;20075;-77
2022/09/15 03:24:18;;;;;;;7.70;6.20;;;15.30;89.40;;;;;;4940917;28;20091;-77
2022/09/15 03:26:48;;;;;;;9.82;6.13;;;15.30;89.40;;;;;;4943771;28;20039;-77
2022/09/15 03:29:14;;;;;;;7.00;6.18;;;15.30;89.40;;;;;;4944065;28;20035;-76
2022/09/15 03:31:40;;;;;;;6.82;6.13;;;15.30;89.40;;;;;;4944110;29;20529;-77
2022/09/15 03:34:06;;;;;;;7.55;6.43;;;15.20;89.40;;;;;;4945109;28;20050;-77
2022/09/15 03:36:32;;;;;;;7.90;6.45;;;15.20;89.40;;;;;;4943921;28;20031;-78
2022/09/15 03:38:58;;;;;;;7.53;6.22;;;15.30;89.40;;;;;;4943962;28;20059;-77
2022/09/15 03:41:26;;;;;;;7.35;6.50;;;15.30;89.40;;;;;;4944564;28;20031;-78
2022/09/15 03:43:53;;;;;;;8.27;6.28;;;15.30;89.40;;;;;;4943421;28;20283;-78
2022/09/15 03:46:19;;;;;;;8.77;6.72;;;15.30;89.50;;;;;;4947283;29;20035;-78
2022/09/15 03:48:46;;;;;;;7.75;6.18;;;15.20;89.40;;;;;;4946340;28;20031;-77
2022/09/15 03:51:12;;;;;;;7.55;5.85;;;15.20;89.50;;;;;;4944697;28;20126;-78
2022/09/15 03:53:40;;;;;;;8.00;6.03;;;15.30;89.40;;;;;;4944497;28;20040;-78
2022/09/15 03:56:30;;;;;;;7.85;6.13;;;15.30;89.40;;;;;;4946302;28;20055;-79
2022/09/15 03:58:58;;;;;;;9.07;7.03;;;15.30;89.50;;;;;;4944359;28;20118;-77
2022/09/15 04:01:24;;;;;;;8.43;6.50;;;15.30;89.40;;;;;;4946753;29;20512;-80
2022/09/15 04:03:50;;;;;;;8.02;6.68;;;15.30;89.50;;;;;;4948390;28;20040;-79
2022/09/15 04:06:17;;;;;;;9.82;6.70;;;15.30;89.50;;;;;;4951055;28;20090;-79
2022/09/15 04:08:43;;;;;;;8.95;6.47;;;15.30;89.50;;;;;;4948508;28;20035;-80
2022/09/15 04:11:11;;;;;;;7.95;6.45;;;15.30;89.50;;;;;;4943793;28;20114;-80
2022/09/15 04:13:39;;;;;;;8.98;6.32;;;15.30;89.50;;;;;;4950981;28;20027;-80
2022/09/15 04:16:08;;;;;;;8.60;6.22;;;15.30;89.40;;;;;;4963175;28;20134;-80
2022/09/15 04:18:34;;;;;;;7.97;5.97;;;15.30;89.50;;;;;;4945390;28;20063;-80
2022/09/15 04:21:04;;;;;;;8.55;5.95;;;15.30;89.50;;;;;;4945822;28;20043;-79
2022/09/15 04:23:30;;;;;;;8.18;6.25;;;15.30;89.40;;;;;;4945465;28;20099;-80
2022/09/15 04:26:03;;;;;;;7.05;5.47;;;15.30;89.50;;;;;;4943606;28;20546;-80
2022/09/15 04:28:33;;;;;;;7.57;6.30;;;15.30;89.50;;;;;;4947206;29;20035;-81
2022/09/15 04:31:08;;;;;;;6.45;5.43;;;15.30;89.40;;;;;;4944784;28;20067;-78
2022/09/15 04:33:34;;;;;;;7.32;5.60;;;15.30;89.30;;;;;;4953458;28;20043;-78
2022/09/15 04:36:21;;;;;;;6.53;5.30;;;15.30;89.50;;;;;;4953730;28;20062;-77
2022/09/15 04:38:49;;;;;;;7.10;5.30;;;15.30;89.80;;;;;;4952237;28;20039;-77
2022/09/15 04:41:16;;;;;;;8.68;6.05;;;15.30;89.60;;;;;;4948905;28;20123;-77
2022/09/15 04:43:42;;;;;;;6.30;5.60;;;15.30;89.70;;;;;;4945156;28;20027;-76
2022/09/15 04:46:09;;;;;;;7.20;5.78;;;15.30;89.70;;;;;;4943788;28;20070;-82
2022/09/15 04:48:36;;;;;;;6.85;5.38;;;15.30;89.70;;;;;;4935030;29;20031;-83
2022/09/15 04:51:04;;;;;;;6.30;5.65;;;15.30;89.70;;;;;;4949726;28;20042;-82
2022/09/15 04:53:31;;;;;;;6.65;5.20;;;15.30;89.60;;;;;;4949960;28;20134;-82
2022/09/15 04:56:05;;;;;;;7.43;5.85;;;15.30;89.60;;;;;;4948390;28;20102;-82
2022/09/15 04:58:36;;;;;;;7.35;5.57;;;15.30;89.50;;;;;;4931940;29;20494;-83
2022/09/15 05:01:07;;;;;;;6.18;5.43;;;15.30;89.50;;;;;;4917149;29;20525;-82
2022/09/15 05:03:36;;;;;;;5.90;5.20;;;15.30;89.60;;;;;;4944938;28;20497;-81
2022/09/15 05:06:04;;;;;;;5.13;4.38;;;15.30;89.40;;;;;;4930700;29;20043;-83
2022/09/15 05:08:30;;;;;;;5.18;4.63;;;15.30;89.40;;;;;;4942888;28;20034;-83
2022/09/15 05:11:05;;;;;;;7.03;5.13;;;15.40;89.40;;;;;;4925972;28;20058;-83
2022/09/15 05:13:32;;;;;;;6.80;5.13;;;15.40;89.40;;;;;;4943153;29;20031;-83
2022/09/15 05:16:19;;;;;;;6.85;5.47;;;15.30;89.70;;;;;;4931190;29;20191;-82
2022/09/15 05:18:48;;;;;;;6.90;5.50;;;15.30;89.90;;;;;;4930222;29;20042;-82
2022/09/15 05:21:16;;;;;;;9.23;6.05;;;15.30;89.70;;;;;;4926556;29;20162;-83
2022/09/15 05:23:43;;;;;;;6.65;5.57;;;15.30;89.80;;;;;;4915028;29;20031;-83
2022/09/15 05:26:12;;;;;;;7.85;5.65;;;15.30;89.70;;;;;;4940573;28;20125;-83
2022/09/15 05:28:39;;;;;;;8.25;6.22;;;15.40;90.00;;;;;;4944560;29;20643;-83
2022/09/15 05:31:19;;;;;;;7.45;6.15;;;15.40;89.80;;;;;;4942784;28;20178;-84
2022/09/15 05:33:47;;;;;;;7.43;6.05;;;15.40;89.70;;;;;;4927351;29;20032;-80
2022/09/15 05:36:16;;;;;;;7.00;6.22;;;15.40;89.70;;;;;;4941863;28;20098;-82
2022/09/15 05:38:42;;;;;;;8.82;6.43;;;15.40;89.70;;;;;;4914607;29;20035;-83
2022/09/15 05:41:14;;;;;;;6.50;5.32;;;15.40;89.70;;;;;;4941893;28;20083;-84
2022/09/15 05:43:40;;;;;;;7.55;5.90;;;15.40;89.50;;;;;;4931564;29;20473;-81
2022/09/15 05:46:08;;;;;;;6.63;5.90;;;15.40;89.60;;;;;;4942265;28;20040;-85
2022/09/15 05:48:34;;;;;;;6.60;5.25;;;15.40;89.40;;;;;;4930550;29;20073;-84
2022/09/15 05:51:00;;;;;;;6.82;5.75;;;15.40;89.80;;;;;;4942884;29;20107;-81
2022/09/15 05:53:26;;;;;;;7.50;5.72;;;15.40;89.50;;;;;;4958494;28;20039;-84
2022/09/15 05:55:57;;;;;;;5.85;5.25;;;15.50;89.40;;;;;;4926650;28;20055;-84
2022/09/15 05:58:24;;;;;;;5.97;5.38;;;15.50;89.30;;;;;;4958914;28;20746;-84
2022/09/15 06:00:52;;;;;;;6.03;5.35;;;15.50;89.40;;;;;;4925320;29;20047;-84
2022/09/15 06:03:18;;;;;;;7.38;5.00;;;15.40;89.40;;;;;;4944765;29;20046;-84
2022/09/15 06:05:45;;;;;;;6.70;5.50;;;15.50;89.20;;;;;;4916407;29;20043;-83
2022/09/15 06:08:11;;;;;;;6.32;5.20;;;15.40;89.10;;;;;;4951556;28;20040;-84
2022/09/15 06:10:37;;;;;;;7.15;5.68;;;15.50;89.00;;;;;;4951835;29;20031;-80
2022/09/15 06:13:04;;;;;;;6.03;5.43;;;15.50;88.80;;;;;;4943193;28;20035;-79
2022/09/15 06:15:31;;;;;;;6.43;5.13;;;15.50;88.90;;;;;;4943106;28;20058;-79
2022/09/15 06:17:57;;;;;;;6.07;4.80;;;15.50;88.70;;;;;;4958566;28;20039;-79
2022/09/15 06:20:24;;;;;;;9.05;5.60;;;15.50;88.70;;;;;;4946410;28;20039;-80
2022/09/15 06:22:52;;;;;;;6.10;5.03;;;15.50;89.00;;;;;;4942705;28;20034;-80
2022/09/15 06:25:18;;;;;;;6.13;5.53;;;15.50;89.20;;;;;;4942283;29;20110;-80
2022/09/15 06:27:44;;;;;;;6.82;5.93;;;15.50;89.20;;;;;;4943245;28;20175;-79
2022/09/15 06:30:10;;;;;;;7.97;6.03;;;15.50;89.40;;;;;;4944364;28;20035;-80
2022/09/15 06:32:36;;;;;;;6.38;5.70;;;15.50;89.30;;;;;;4942274;28;20036;-80
2022/09/15 06:35:06;;;;;;;8.38;6.03;;;15.50;89.40;;;;;;4941597;28;20058;-81
2022/09/15 06:37:33;;;;;;;8.32;6.82;;;15.50;89.50;;;;;;4927874;29;20186;-81
2022/09/15 06:40:00;;;;;;;8.18;6.63;;;15.50;89.50;;;;;;4944179;28;20534;-80
2022/09/15 06:42:26;;;;;;;7.90;6.55;;;15.40;89.40;;;;;;4943270;28;20507;-81
2022/09/15 06:44:53;;;;;;;7.50;6.70;;;15.50;89.20;;;;;;4942516;28;20407;-81
2022/09/15 06:47:18;;;;;;;7.00;6.35;;;15.40;89.30;;;;;;4940161;28;20134;-81
2022/09/15 06:49:44;;;;;;;7.90;5.97;;;15.40;89.30;;;;;;4942064;29;20187;-80
2022/09/15 06:52:10;;;;;;;7.20;6.47;;;15.50;89.30;;;;;;4958737;28;20507;-80
2022/09/15 06:54:37;;;;;;;7.18;6.03;;;15.40;89.10;;;;;;4936835;28;20199;-80
2022/09/15 06:57:03;;;;;;;6.32;5.70;;;15.40;89.10;;;;;;4941609;28;20047;-80
2022/09/15 06:59:29;;;;;;;8.35;5.88;;;15.40;89.10;;;;;;4941605;28;20039;-79
2022/09/15 07:01:55;;;;;;;6.82;5.85;;;15.40;89.00;;;;;;4940211;28;20119;-79
2022/09/15 07:04:21;;;;;;;7.10;6.18;;;15.40;89.00;;;;;;4941844;29;20038;-80
2022/09/15 07:06:47;;;;;;;8.07;6.03;;;15.50;89.00;;;;;;4942084;28;20640;-77
2022/09/15 07:09:13;;;;;;;8.15;6.90;;;15.40;88.90;;;;;;4941459;29;20034;-79
2022/09/15 07:11:39;;;;;;;7.05;6.35;;;15.40;88.80;;;;;;4940850;28;20027;-81
2022/09/15 07:14:06;;;;;;;8.32;6.95;;;15.50;89.30;;;;;;4940675;28;20530;-77
2022/09/15 07:16:32;;;;;;;8.35;6.43;;;15.50;88.70;;;;;;4942626;29;20036;-78
2022/09/15 07:19:00;;;;;;;7.45;6.18;;;15.50;88.40;;;;;;4939896;28;20051;-78
2022/09/15 07:21:27;;;;;;;8.85;6.63;;;15.50;88.40;;;;;;4941538;28;20039;-77
2022/09/15 07:23:56;;;;;;;7.53;6.65;;;15.60;88.20;;;;;;4959055;28;20126;-77
2022/09/15 07:26:27;;;;;;;7.63;6.85;;;15.60;88.00;;;;;;4943694;28;20518;-77
2022/09/15 07:28:59;;;;;;;7.82;6.80;;;15.60;87.80;;;;;;4941548;28;20035;-78
2022/09/15 07:31:28;;;;;;;8.07;7.13;;;15.60;87.70;;;;;;4941151;29;20127;-78
2022/09/15 07:33:54;;;;;;;8.32;7.30;;;15.60;87.30;;;;;;4941123;29;20081;-77
2022/09/15 07:36:21;;;;;;;8.73;7.78;;;15.60;87.50;;;;;;4939407;28;20106;-77
2022/09/15 07:38:48;;;;;;;8.98;7.72;;;15.70;87.50;;;;;;4942315;28;20036;-77
2022/09/15 07:41:20;;;;;;;7.85;7.00;;;15.70;87.20;;;;;;4940895;29;20040;-78
2022/09/15 07:43:47;;;;;;;7.15;6.43;;;15.70;87.00;;;;;;4941720;29;20031;-77
2022/09/15 07:46:14;;;;;;;8.63;6.10;;;15.70;86.60;;;;;;4940616;28;20036;-77
2022/09/15 07:48:44;;;;;;;6.60;5.90;;;15.70;86.40;;;;;;4943259;28;20466;-77
2022/09/15 07:51:10;;;;;;;6.93;5.95;;;15.70;86.20;;;;;;4941132;28;20407;-76
2022/09/15 07:53:35;;;;;;;7.72;5.57;;;15.70;86.20;;;;;;4942457;28;20043;-76
2022/09/15 07:56:02;;;;;;;8.10;6.38;;;15.70;86.00;;;;;;4941002;28;20062;-78
2022/09/15 07:58:28;;;;;;;7.68;6.15;;;15.80;86.00;;;;;;4943639;29;20036;-78
2022/09/15 08:01:00;;;;;;;8.77;6.88;;;15.80;86.10;;;;;;4939982;29;20454;-78
2022/09/15 08:03:26;;;;;;;7.43;5.70;;;15.80;85.90;;;;;;4939382;28;20040;-77
2022/09/15 08:05:57;;;;;;;7.53;6.25;;;15.80;86.10;;;;;;4939493;28;20091;-77
2022/09/15 08:08:23;;;;;;;5.50;4.85;;;15.80;86.10;;;;;;4942074;28;20040;-77
2022/09/15 08:10:49;;;;;;;6.28;5.20;;;15.80;86.20;;;;;;4943042;29;20032;-77
2022/09/15 08:13:15;;;;;;;12.73;8.77;;;15.80;86.20;;;;;;4940256;28;20048;-77
2022/09/15 08:15:42;;;;;;;10.80;8.60;;;15.80;86.00;;;;;;4941913;28;20422;-76
2022/09/15 08:18:08;;;;;;;11.32;8.07;;;15.90;86.00;;;;;;4940086;28;20605;-77
2022/09/15 08:20:38;;;;;;;9.40;7.40;;;15.90;86.10;;;;;;4942440;28;20082;-77
2022/09/15 08:23:04;;;;;;;8.05;6.50;;;15.90;85.80;;;;;;4941341;28;20097;-77
2022/09/15 08:25:30;;;;;;;9.02;6.50;;;15.90;85.90;;;;;;4942401;29;20039;-77
2022/09/15 08:27:58;;;;;;;7.13;5.80;;;15.90;86.00;;;;;;4939863;28;20028;-77
2022/09/15 08:30:25;;;;;;;6.15;5.28;;;15.90;85.80;;;;;;4955151;28;20131;-77
2022/09/15 08:32:51;;;;;;;5.78;4.95;;;15.90;85.50;;;;;;4945627;28;20043;-77
2022/09/15 08:35:18;;;;;;;6.47;5.03;;;16.00;85.60;;;;;;4944565;28;20046;-77
2022/09/15 08:37:45;;;;;;;7.30;5.07;;;15.90;85.60;;;;;;4944825;28;20039;-77
2022/09/15 08:40:22;;;;;;;5.72;4.70;;;16.00;85.30;;;;;;4945779;28;20042;-77
2022/09/15 08:42:54;;;;;;;6.00;4.85;;;16.00;85.20;;;;;;4944505;28;20047;-78
2022/09/15 08:45:27;;;;;;;5.55;4.40;;;16.00;85.10;;;;;;4944231;28;20043;-77
2022/09/15 08:48:02;;;;;;;6.80;4.47;;;16.10;85.10;;;;;;4945051;28;20040;-76
2022/09/15 08:50:43;;;;;;;5.13;4.63;;;16.10;84.90;;;;;;4942265;28;20113;-78
2022/09/15 08:53:29;;;;;;;6.45;4.47;;;16.10;84.80;;;;;;4944544;28;20081;-77
2022/09/15 08:56:02;;;;;;;4.72;4.32;;;16.10;84.70;;;;;;4944205;28;20073;-78
2022/09/15 08:58:34;;;;;;;6.40;5.38;;;16.10;84.60;;;;;;4945818;29;20043;-77
2022/09/15 09:01:07;;;;;;;5.80;4.03;;;16.10;84.60;;;;;;4943273;28;20471;-78
2022/09/15 09:03:44;;;;;;;4.72;4.22;;;16.10;84.60;;;;;;4943711;28;20040;-77
2022/09/15 09:06:50;;;;;;;6.65;4.60;;;16.10;85.20;;;;;;4943013;28;20039;-77
2022/09/15 09:09:25;;;;;;;7.57;4.50;;;16.20;84.60;;;;;;4884130;29;20855;-77
2022/09/15 09:12:02;;;;;;;5.17;4.63;;;16.20;84.40;;;;;;4884572;29;20096;-76
2022/09/15 09:14:51;;;;;;;4.78;4.28;;;16.20;84.30;;;;;;4885399;29;20277;-77
2022/09/15 09:17:32;;;;;;;4.80;4.40;;;16.30;84.30;;;;;;4883679;29;20048;-76
2022/09/15 09:20:13;;;;;;;6.95;4.50;;;16.30;84.20;;;;;;4868322;29;20611;-77
2022/09/15 09:22:41;;;;;;;4.97;4.50;;;16.30;84.10;;;;;;4884686;29;20029;-78
2022/09/15 09:25:13;;;;;;;7.15;4.47;;;16.30;84.10;;;;;;4885263;29;20037;-78
2022/09/15 09:27:39;;;;;;;6.03;4.32;;;16.30;84.20;;;;;;4883112;29;20052;-77
2022/09/15 09:30:22;;;;;;;6.20;4.10;;;16.30;84.00;;;;;;4869562;29;20045;-78
2022/09/15 09:33:28;;;;;;;4.82;3.85;;;16.30;83.90;;;;;;4883702;29;20052;-78
2022/09/15 09:35:59;;;;;;;5.50;3.87;;;16.30;83.80;;;;;;4883884;29;20078;-76
2022/09/15 09:38:37;;;;;;;4.72;3.95;;;16.40;83.70;;;;;;4871935;29;20951;-78
2022/09/15 09:41:15;;;;;;;4.43;4.03;;;16.40;83.80;;;;;;4884442;29;20036;-78
2022/09/15 09:43:45;;;;;;;4.30;3.72;;;16.40;83.70;;;;;;4873180;29;20029;-78
2022/09/15 09:46:16;;;;;;;6.95;3.80;;;16.40;83.60;;;;;;4909671;29;20039;-77
2022/09/15 09:48:53;;;;;;;8.00;4.55;;;16.40;83.70;;;;;;4942594;28;20510;-78
2022/09/15 09:51:52;;;;;;;7.50;5.40;;;16.40;83.40;;;;;;4943055;28;20043;-78
2022/09/15 09:54:21;;;;;;;5.95;5.03;;;16.50;83.60;;;;;;4888443;29;20043;-78
2022/09/15 09:56:48;;;;;;;7.00;4.97;;;16.50;83.50;;;;;;4876053;29;20273;-76
2022/09/15 09:59:36;;;;;;;7.28;4.80;;;16.50;83.40;;;;;;4893047;29;20036;-78
2022/09/15 10:02:11;;;;;;;6.78;4.75;;;16.50;83.40;;;;;;4891842;29;20412;-78
2022/09/15 10:04:37;;;;;;;5.25;4.40;;;16.50;83.50;;;;;;4891333;29;20141;-79
2022/09/15 10:07:04;;;;;;;6.53;4.15;;;16.50;83.40;;;;;;4907268;29;20139;-77
2022/09/15 10:09:30;;;;;;;5.20;4.00;;;16.60;83.40;;;;;;4891479;29;20087;-76
2022/09/15 10:12:00;;;;;;;4.15;3.70;;;16.60;83.40;;;;;;4906630;29;20032;-77
2022/09/15 10:14:38;;;;;;;4.53;3.50;;;16.60;83.30;;;;;;4906409;29;20039;-77
2022/09/15 10:17:14;;;;;;;4.15;3.70;;;16.60;83.30;;;;;;4907575;29;20048;-77
2022/09/15 10:19:48;;;;;;;4.65;3.58;;;16.60;83.10;;;;;;4907408;29;20043;-76
2022/09/15 10:22:35;;;;;;;5.30;3.47;;;16.70;83.20;;;;;;4906656;29;20131;-77
2022/09/15 10:25:27;;;;;;;3.63;3.17;;;16.60;83.10;;;;;;4906407;29;20040;-78
2022/09/15 10:28:07;;;;;;;3.33;3.03;;;16.70;83.10;;;;;;4897981;29;20054;-77
2022/09/15 10:30:35;;;;;;;4.10;3.17;;;16.70;83.00;;;;;;4931739;29;20102;-77
2022/09/15 10:33:21;;;;;;;3.50;3.13;;;16.70;82.90;;;;;;4940794;28;20031;-77
2022/09/15 10:35:47;;;;;;;4.50;3.40;;;16.70;83.00;;;;;;4943203;28;20472;-79
2022/09/15 10:38:25;;;;;;;5.55;3.72;;;16.80;82.90;;;;;;4940461;28;20035;-76
2022/09/15 10:41:00;;;;;;;5.53;4.07;;;16.80;83.00;;;;;;4943870;29;20039;-77
2022/09/15 10:43:47;;;;;;;5.38;3.75;;;16.80;82.80;;;;;;4943291;29;20051;-77
2022/09/15 10:46:52;;;;;;;4.45;3.70;;;16.80;82.90;;;;;;4942069;28;20040;-77
2022/09/15 10:49:39;;;;;;;4.65;3.58;;;16.90;82.80;;;;;;4866151;29;20543;-78
2022/09/15 10:52:37;;;;;;;5.57;3.10;;;16.90;82.70;;;;;;4883118;29;20053;-77
2022/09/15 10:55:28;;;;;;;3.28;2.97;;;16.90;82.70;;;;;;4881735;29;20528;-76
2022/09/15 10:57:56;;;;;;;4.78;3.10;;;16.90;82.60;;;;;;4882746;29;20070;-77
2022/09/15 11:00:27;;;;;;;5.07;3.20;;;16.90;82.50;;;;;;4882324;29;20071;-76
2022/09/15 11:03:16;;;;;;;4.93;2.63;;;16.90;82.60;;;;;;4882673;29;20052;-76
2022/09/15 11:06:12;;;;;;;3.33;2.65;;;16.90;82.60;;;;;;4882682;29;20044;-76
2022/09/15 11:09:15;;;;;;;3.80;3.00;;;17.00;82.50;;;;;;4882110;29;20555;-77
2022/09/15 11:11:53;;;;;;;3.85;2.95;;;17.00;82.50;;;;;;4882478;29;20431;-81
2022/09/15 11:14:44;;;;;;;3.28;2.97;;;17.00;82.40;;;;;;4883996;29;20028;-81
2022/09/15 11:17:16;;;;;;;3.33;3.03;;;17.00;82.30;;;;;;4867809;29;20445;-81
2022/09/15 11:20:14;;;;;;;3.70;3.22;;;17.10;82.30;;;;;;4882420;29;20051;-81
2022/09/15 11:22:53;;;;;;;3.42;3.13;;;17.10;82.90;;;;;;4882731;29;20036;-81
2022/09/15 11:25:25;;;;;;;3.65;3.13;;;17.10;82.20;;;;;;4893516;29;20074;-81
2022/09/15 11:28:14;;;;;;;3.28;2.97;;;17.10;82.20;;;;;;4939984;29;20046;-80
2022/09/15 11:30:50;;;;;;;3.97;2.95;;;17.20;82.20;;;;;;4957125;28;20202;-83
2022/09/15 11:34:05;;;;;;;3.67;3.13;;;17.10;82.10;;;;;;4944320;29;20067;-83
2022/09/15 11:36:41;;;;;;;4.43;3.08;;;17.10;81.90;;;;;;4882265;29;20040;-83
2022/09/15 11:39:18;;;;;;;3.90;3.20;;;17.10;81.90;;;;;;4881348;29;20029;-83
2022/09/15 11:42:09;;;;;;;3.47;3.17;;;17.10;81.60;;;;;;4855458;29;20032;-83
2022/09/15 11:44:38;;;;;;;5.30;3.45;;;17.10;81.70;;;;;;4869847;29;20034;-84
2022/09/15 11:47:13;;;;;;;3.50;3.20;;;17.10;81.60;;;;;;4879405;29;20121;-83
2022/09/15 11:49:54;;;;;;;3.30;2.95;;;17.10;81.60;;;;;;4871411;29;20039;-84
2022/09/15 11:52:43;;;;;;;3.97;2.97;;;17.10;81.60;;;;;;4870757;29;20055;-83
2022/09/15 11:55:48;;;;;;;3.47;2.75;;;17.20;81.50;;;;;;4870536;29;20049;-84
2022/09/15 11:58:25;;;;;;;2.85;2.42;;;17.20;81.50;;;;;;4870601;29;20158;-81
2022/09/15 12:01:10;;;;;;;3.03;2.67;;;17.20;81.70;;;;;;4856568;29;20062;-82
2022/09/15 12:03:49;;;;;;;2.53;2.30;;;17.20;81.70;;;;;;4883085;29;20029;-82
2022/09/15 12:06:23;;;;;;;2.40;2.20;;;17.20;81.60;;;;;;4881189;29;20183;-81
2022/09/15 12:09:16;;;;;;;3.65;2.33;;;17.20;81.60;;;;;;4928401;29;20134;-84
2022/09/15 12:11:48;;;;;;;2.30;2.10;;;17.20;81.70;;;;;;4943172;28;20577;-82
2022/09/15 12:14:21;;;;;;;2.40;2.17;;;17.20;81.60;;;;;;4944582;28;20035;-82
2022/09/15 12:16:47;;;;;;;2.55;2.35;;;17.10;81.50;;;;;;4912143;29;20525;-82
2022/09/15 12:19:32;;;;;;;3.95;2.70;;;17.10;81.60;;;;;;4943493;28;20055;-82
2022/09/15 12:22:15;;;;;;;2.97;2.67;;;17.10;81.70;;;;;;4944513;28;20058;-81
2022/09/15 12:24:48;;;;;;;3.05;2.75;;;17.10;81.90;;;;;;4944990;28;20893;-82
2022/09/15 12:27:16;;;;;;;2.80;2.15;;;17.10;81.90;;;;;;4945606;29;20047;-82
2022/09/15 12:29:50;;;;;;;2.70;2.10;;;17.10;81.70;;;;;;4942825;29;20426;-81
2022/09/15 12:32:25;;;;;;;2.13;1.98;;;17.10;81.80;;;;;;4928287;29;20031;-81
2022/09/15 12:34:59;;;;;;;2.83;1.80;;;17.10;81.60;;;;;;4944679;29;20042;-81
2022/09/15 12:37:45;;;;;;;1.70;1.60;;;17.20;81.60;;;;;;4947628;29;20048;-82
2022/09/15 12:40:40;;;;;;;2.90;1.90;;;17.20;81.60;;;;;;4943822;28;20035;-81
2022/09/15 12:43:17;;;;;;;1.40;1.30;;;17.20;81.60;;;;;;4926953;29;20035;-80
2022/09/15 12:45:56;;;;;;;1.58;1.48;;;17.20;81.40;;;;;;4942832;28;20028;-81
2022/09/15 12:48:34;;;;;;;1.65;1.55;;;17.20;81.50;;;;;;4927499;29;20070;-80
2022/09/15 12:51:09;;;;;;;1.73;1.55;;;17.20;81.40;;;;;;4946099;28;20411;-81
2022/09/15 12:53:53;;;;;;;1.83;1.35;;;17.20;81.50;;;;;;4916495;29;20081;-81
2022/09/15 12:56:24;;;;;;;1.52;1.38;;;17.20;81.30;;;;;;4945249;28;20055;-81
2022/09/15 12:58:52;;;;;;;1.70;1.60;;;17.20;81.20;;;;;;4945422;28;20095;-80
2022/09/15 13:01:18;;;;;;;3.38;1.85;;;17.20;81.30;;;;;;4927762;29;20134;-80
2022/09/15 13:03:49;;;;;;;2.00;1.50;;;17.10;81.30;;;;;;4944685;28;20130;-80
2022/09/15 13:06:24;;;;;;;2.08;1.75;;;17.20;81.40;;;;;;4946104;28;20040;-81
2022/09/15 13:09:00;;;;;;;1.63;1.50;;;17.10;81.30;;;;;;4944517;28;20033;-83
2022/09/15 13:11:35;;;;;;;2.55;1.83;;;17.10;81.30;;;;;;4910437;29;20055;-85
2022/09/15 13:14:07;;;;;;;2.22;1.40;;;17.10;81.20;;;;;;4929383;28;20027;-84
2022/09/15 13:16:39;;;;;;;1.80;1.40;;;17.20;81.30;;;;;;4926912;29;20041;-83
2022/09/15 13:19:13;;;;;;;1.30;1.20;;;17.20;81.20;;;;;;4927606;29;20892;-85